sensor_id;sensor_type;location;lat;lon;timestamp;temperature;humidity
22769;DHT22;13001;51.968;5.918;2024-02-21T00:01:17;10.90;99.90
22769;DHT22;13001;51.968;5.918;2024-02-21T00:03:44;10.90;99.90
22769;DHT22;13001;51.968;5.918;2024-02-21T00:06:12;10.90;99.90
22769;DHT22;13001;51.968;5.918;2024-02-21T00:08:39;10.90;99.90
22769;DHT22;13001;51.968;5.918;2024-02-21T00:11:07;10.90;99.90
22769;DHT22;13001;51.968;5.918;2024-02-21T00:13:34;10.90;99.90
22769;DHT22;13001;51.968;5.918;2024-02-21T00:16:02;10.90;99.90
22769;DHT22;13001;51.968;5.918;2024-02-21T00:18:29;10.90;99.90
22769;DHT22;13001;51.968;5.918;2024-02-21T00:20:57;11.00;99.90
22769;DHT22;13001;51.968;5.918;2024-02-21T00:23:24;11.00;99.90
22769;DHT22;13001;51.968;5.918;2024-02-21T00:25:52;11.00;99.90
22769;DHT22;13001;51.968;5.918;2024-02-21T00:28:21;11.00;99.90
22769;DHT22;13001;51.968;5.918;2024-02-21T00:30:48;11.00;99.90
22769;DHT22;13001;51.968;5.918;2024-02-21T00:33:17;11.00;99.90
22769;DHT22;13001;51.968;5.918;2024-02-21T00:35:45;11.00;99.90
22769;DHT22;13001;51.968;5.918;2024-02-21T00:38:12;11.00;99.90
22769;DHT22;13001;51.968;5.918;2024-02-21T00:40:40;11.00;99.90
22769;DHT22;13001;51.968;5.918;2024-02-21T00:43:08;11.00;99.90
22769;DHT22;13001;51.968;5.918;2024-02-21T00:45:35;11.00;99.90
22769;DHT22;13001;51.968;5.918;2024-02-21T00:48:03;11.00;99.90
22769;DHT22;13001;51.968;5.918;2024-02-21T00:50:31;11.00;99.90
22769;DHT22;13001;51.968;5.918;2024-02-21T00:52:58;11.00;99.90
22769;DHT22;13001;51.968;5.918;2024-02-21T00:55:26;11.00;99.90
22769;DHT22;13001;51.968;5.918;2024-02-21T00:57:53;11.00;99.90
22769;DHT22;13001;51.968;5.918;2024-02-21T01:00:21;11.00;99.90
22769;DHT22;13001;51.968;5.918;2024-02-21T01:02:48;11.00;99.90
22769;DHT22;13001;51.968;5.918;2024-02-21T01:05:16;11.00;99.90
22769;DHT22;13001;51.968;5.918;2024-02-21T01:07:43;11.00;99.90
22769;DHT22;13001;51.968;5.918;2024-02-21T01:10:11;11.00;99.90
22769;DHT22;13001;51.968;5.918;2024-02-21T01:12:38;11.00;99.90
22769;DHT22;13001;51.968;5.918;2024-02-21T01:15:06;11.00;99.90
22769;DHT22;13001;51.968;5.918;2024-02-21T01:17:34;11.00;99.90
22769;DHT22;13001;51.968;5.918;2024-02-21T01:20:02;11.00;99.90
22769;DHT22;13001;51.968;5.918;2024-02-21T01:22:32;11.00;99.90
22769;DHT22;13001;51.968;5.918;2024-02-21T01:25:00;11.00;99.90
22769;DHT22;13001;51.968;5.918;2024-02-21T01:27:27;11.00;99.90
22769;DHT22;13001;51.968;5.918;2024-02-21T01:29:55;11.00;99.90
22769;DHT22;13001;51.968;5.918;2024-02-21T01:32:23;11.00;99.90
22769;DHT22;13001;51.968;5.918;2024-02-21T01:34:51;11.00;99.90
22769;DHT22;13001;51.968;5.918;2024-02-21T01:37:21;11.00;99.90
22769;DHT22;13001;51.968;5.918;2024-02-21T01:39:48;11.00;99.90
22769;DHT22;13001;51.968;5.918;2024-02-21T01:42:16;11.00;99.90
22769;DHT22;13001;51.968;5.918;2024-02-21T01:44:43;11.00;99.90
22769;DHT22;13001;51.968;5.918;2024-02-21T01:47:11;11.00;99.90
22769;DHT22;13001;51.968;5.918;2024-02-21T01:49:43;11.00;99.90
22769;DHT22;13001;51.968;5.918;2024-02-21T01:52:14;11.00;99.90
22769;DHT22;13001;51.968;5.918;2024-02-21T01:54:42;11.00;99.90
22769;DHT22;13001;51.968;5.918;2024-02-21T01:57:10;11.00;99.90
22769;DHT22;13001;51.968;5.918;2024-02-21T01:59:38;11.00;99.90
22769;DHT22;13001;51.968;5.918;2024-02-21T02:02:05;11.00;99.90
22769;DHT22;13001;51.968;5.918;2024-02-21T02:04:33;11.00;99.90
22769;DHT22;13001;51.968;5.918;2024-02-21T02:07:03;11.00;99.90
22769;DHT22;13001;51.968;5.918;2024-02-21T02:09:31;11.10;99.90
22769;DHT22;13001;51.968;5.918;2024-02-21T02:11:59;11.00;99.90
22769;DHT22;13001;51.968;5.918;2024-02-21T02:14:27;11.00;99.90
22769;DHT22;13001;51.968;5.918;2024-02-21T02:16:55;11.00;99.90
22769;DHT22;13001;51.968;5.918;2024-02-21T02:19:22;11.00;99.90
22769;DHT22;13001;51.968;5.918;2024-02-21T02:21:56;11.00;99.90
22769;DHT22;13001;51.968;5.918;2024-02-21T02:24:25;10.90;99.90
22769;DHT22;13001;51.968;5.918;2024-02-21T02:26:52;10.90;99.90
22769;DHT22;13001;51.968;5.918;2024-02-21T02:29:20;10.90;99.90
22769;DHT22;13001;51.968;5.918;2024-02-21T02:31:49;10.90;99.90
22769;DHT22;13001;51.968;5.918;2024-02-21T02:34:17;10.90;99.90
22769;DHT22;13001;51.968;5.918;2024-02-21T02:36:44;10.90;99.90
22769;DHT22;13001;51.968;5.918;2024-02-21T02:39:12;10.90;99.90
22769;DHT22;13001;51.968;5.918;2024-02-21T02:41:39;10.90;99.90
22769;DHT22;13001;51.968;5.918;2024-02-21T02:44:07;10.90;99.90
22769;DHT22;13001;51.968;5.918;2024-02-21T02:46:34;10.90;99.90
22769;DHT22;13001;51.968;5.918;2024-02-21T02:49:02;10.90;99.90
22769;DHT22;13001;51.968;5.918;2024-02-21T02:51:29;10.90;99.90
22769;DHT22;13001;51.968;5.918;2024-02-21T02:53:57;10.90;99.90
22769;DHT22;13001;51.968;5.918;2024-02-21T02:56:25;10.90;99.90
22769;DHT22;13001;51.968;5.918;2024-02-21T02:58:52;10.90;99.90
22769;DHT22;13001;51.968;5.918;2024-02-21T03:01:20;10.80;99.90
22769;DHT22;13001;51.968;5.918;2024-02-21T03:03:47;10.80;99.90
22769;DHT22;13001;51.968;5.918;2024-02-21T03:06:15;10.80;99.90
22769;DHT22;13001;51.968;5.918;2024-02-21T03:08:42;10.80;99.90
22769;DHT22;13001;51.968;5.918;2024-02-21T03:11:10;10.80;99.90
22769;DHT22;13001;51.968;5.918;2024-02-21T03:13:37;10.80;99.90
22769;DHT22;13001;51.968;5.918;2024-02-21T03:16:05;10.80;99.90
22769;DHT22;13001;51.968;5.918;2024-02-21T03:18:34;10.80;99.90
22769;DHT22;13001;51.968;5.918;2024-02-21T03:21:02;10.80;99.90
22769;DHT22;13001;51.968;5.918;2024-02-21T03:23:30;10.80;99.90
22769;DHT22;13001;51.968;5.918;2024-02-21T03:25:57;10.80;99.90
22769;DHT22;13001;51.968;5.918;2024-02-21T03:28:25;10.80;99.90
22769;DHT22;13001;51.968;5.918;2024-02-21T03:30:52;10.80;99.90
22769;DHT22;13001;51.968;5.918;2024-02-21T03:33:20;10.80;99.90
22769;DHT22;13001;51.968;5.918;2024-02-21T03:35:49;10.80;99.90
22769;DHT22;13001;51.968;5.918;2024-02-21T03:38:17;10.80;99.90
22769;DHT22;13001;51.968;5.918;2024-02-21T03:40:44;10.80;99.90
22769;DHT22;13001;51.968;5.918;2024-02-21T03:43:12;10.80;99.90
22769;DHT22;13001;51.968;5.918;2024-02-21T03:45:41;10.80;99.90
22769;DHT22;13001;51.968;5.918;2024-02-21T03:48:08;10.80;99.90
22769;DHT22;13001;51.968;5.918;2024-02-21T03:50:38;10.80;99.90
22769;DHT22;13001;51.968;5.918;2024-02-21T03:53:05;10.80;99.90
22769;DHT22;13001;51.968;5.918;2024-02-21T03:55:33;10.80;99.90
22769;DHT22;13001;51.968;5.918;2024-02-21T03:58:02;10.80;99.90
22769;DHT22;13001;51.968;5.918;2024-02-21T04:00:29;10.90;99.90
22769;DHT22;13001;51.968;5.918;2024-02-21T04:02:57;10.90;99.90
22769;DHT22;13001;51.968;5.918;2024-02-21T04:05:24;10.90;99.90
22769;DHT22;13001;51.968;5.918;2024-02-21T04:07:54;10.80;99.90
22769;DHT22;13001;51.968;5.918;2024-02-21T04:10:21;10.80;99.90
22769;DHT22;13001;51.968;5.918;2024-02-21T04:12:49;10.80;99.90
22769;DHT22;13001;51.968;5.918;2024-02-21T04:15:17;10.90;99.90
22769;DHT22;13001;51.968;5.918;2024-02-21T04:17:45;10.80;99.90
22769;DHT22;13001;51.968;5.918;2024-02-21T04:20:15;10.80;99.90
22769;DHT22;13001;51.968;5.918;2024-02-21T04:22:44;10.80;99.90
22769;DHT22;13001;51.968;5.918;2024-02-21T04:25:11;10.80;99.90
22769;DHT22;13001;51.968;5.918;2024-02-21T04:27:39;10.80;99.90
22769;DHT22;13001;51.968;5.918;2024-02-21T04:30:07;10.80;99.90
22769;DHT22;13001;51.968;5.918;2024-02-21T04:32:36;10.80;99.90
22769;DHT22;13001;51.968;5.918;2024-02-21T04:35:03;10.80;99.90
22769;DHT22;13001;51.968;5.918;2024-02-21T04:37:31;10.80;99.90
22769;DHT22;13001;51.968;5.918;2024-02-21T04:39:59;10.80;99.90
22769;DHT22;13001;51.968;5.918;2024-02-21T04:42:26;10.80;99.90
22769;DHT22;13001;51.968;5.918;2024-02-21T04:44:54;10.80;99.90
22769;DHT22;13001;51.968;5.918;2024-02-21T04:47:21;10.80;99.90
22769;DHT22;13001;51.968;5.918;2024-02-21T04:49:50;10.80;99.90
22769;DHT22;13001;51.968;5.918;2024-02-21T04:52:18;10.80;99.90
22769;DHT22;13001;51.968;5.918;2024-02-21T04:54:46;10.80;99.90
22769;DHT22;13001;51.968;5.918;2024-02-21T04:57:13;10.80;99.90
22769;DHT22;13001;51.968;5.918;2024-02-21T04:59:44;10.80;99.90
22769;DHT22;13001;51.968;5.918;2024-02-21T05:02:12;10.80;99.90
22769;DHT22;13001;51.968;5.918;2024-02-21T05:04:39;10.80;99.90
22769;DHT22;13001;51.968;5.918;2024-02-21T05:07:08;10.80;99.90
22769;DHT22;13001;51.968;5.918;2024-02-21T05:09:37;10.80;99.90
22769;DHT22;13001;51.968;5.918;2024-02-21T05:12:05;10.80;99.90
22769;DHT22;13001;51.968;5.918;2024-02-21T05:14:32;10.80;99.90
22769;DHT22;13001;51.968;5.918;2024-02-21T05:17:00;10.80;99.90
22769;DHT22;13001;51.968;5.918;2024-02-21T05:19:27;10.80;99.90
22769;DHT22;13001;51.968;5.918;2024-02-21T05:21:55;10.80;99.90
22769;DHT22;13001;51.968;5.918;2024-02-21T05:24:22;10.80;99.90
22769;DHT22;13001;51.968;5.918;2024-02-21T05:26:50;10.70;99.90
22769;DHT22;13001;51.968;5.918;2024-02-21T05:29:17;10.80;99.90
22769;DHT22;13001;51.968;5.918;2024-02-21T05:34:22;10.80;99.90
22769;DHT22;13001;51.968;5.918;2024-02-21T05:36:49;10.80;99.90
22769;DHT22;13001;51.968;5.918;2024-02-21T05:39:17;10.70;99.90
22769;DHT22;13001;51.968;5.918;2024-02-21T05:41:45;10.70;99.90
22769;DHT22;13001;51.968;5.918;2024-02-21T05:44:13;10.70;99.90
22769;DHT22;13001;51.968;5.918;2024-02-21T05:46:40;10.70;99.90
22769;DHT22;13001;51.968;5.918;2024-02-21T05:49:08;10.70;99.90
22769;DHT22;13001;51.968;5.918;2024-02-21T05:51:35;10.70;99.90
22769;DHT22;13001;51.968;5.918;2024-02-21T05:54:03;10.70;99.90
22769;DHT22;13001;51.968;5.918;2024-02-21T05:56:30;10.70;99.90
22769;DHT22;13001;51.968;5.918;2024-02-21T05:58:58;10.70;99.90
22769;DHT22;13001;51.968;5.918;2024-02-21T06:01:25;10.70;99.90
22769;DHT22;13001;51.968;5.918;2024-02-21T06:03:54;10.70;99.90
22769;DHT22;13001;51.968;5.918;2024-02-21T06:06:21;10.70;99.90
22769;DHT22;13001;51.968;5.918;2024-02-21T06:08:53;10.70;99.90
22769;DHT22;13001;51.968;5.918;2024-02-21T06:11:22;10.70;99.90
22769;DHT22;13001;51.968;5.918;2024-02-21T06:13:49;10.70;99.90
22769;DHT22;13001;51.968;5.918;2024-02-21T06:16:17;10.70;99.90
22769;DHT22;13001;51.968;5.918;2024-02-21T06:18:46;10.70;99.90
22769;DHT22;13001;51.968;5.918;2024-02-21T06:21:13;10.70;99.90
22769;DHT22;13001;51.968;5.918;2024-02-21T06:23:42;10.70;99.90
22769;DHT22;13001;51.968;5.918;2024-02-21T06:26:10;10.70;99.90
22769;DHT22;13001;51.968;5.918;2024-02-21T06:28:38;10.70;99.90
22769;DHT22;13001;51.968;5.918;2024-02-21T06:31:05;10.70;99.90
22769;DHT22;13001;51.968;5.918;2024-02-21T06:33:33;10.70;99.90
22769;DHT22;13001;51.968;5.918;2024-02-21T06:36:00;10.70;99.90
22769;DHT22;13001;51.968;5.918;2024-02-21T06:38:28;10.70;99.90
22769;DHT22;13001;51.968;5.918;2024-02-21T06:40:55;10.70;99.90
22769;DHT22;13001;51.968;5.918;2024-02-21T06:43:25;10.70;99.90
22769;DHT22;13001;51.968;5.918;2024-02-21T06:45:52;10.70;99.90
22769;DHT22;13001;51.968;5.918;2024-02-21T06:48:20;10.70;99.90
22769;DHT22;13001;51.968;5.918;2024-02-21T06:50:48;10.70;99.90
22769;DHT22;13001;51.968;5.918;2024-02-21T06:53:16;10.70;99.90
22769;DHT22;13001;51.968;5.918;2024-02-21T06:55:43;10.70;99.90
22769;DHT22;13001;51.968;5.918;2024-02-21T06:58:12;10.70;99.90
22769;DHT22;13001;51.968;5.918;2024-02-21T07:00:42;10.70;99.90
22769;DHT22;13001;51.968;5.918;2024-02-21T07:03:10;10.70;99.90
22769;DHT22;13001;51.968;5.918;2024-02-21T07:05:37;10.70;99.90
22769;DHT22;13001;51.968;5.918;2024-02-21T07:08:05;10.70;99.90
22769;DHT22;13001;51.968;5.918;2024-02-21T07:10:33;10.70;99.90
22769;DHT22;13001;51.968;5.918;2024-02-21T07:13:00;10.70;99.90
22769;DHT22;13001;51.968;5.918;2024-02-21T07:15:28;10.70;99.90
22769;DHT22;13001;51.968;5.918;2024-02-21T07:17:57;10.70;99.90
22769;DHT22;13001;51.968;5.918;2024-02-21T07:20:24;10.80;99.90
22769;DHT22;13001;51.968;5.918;2024-02-21T07:22:52;10.80;99.90
22769;DHT22;13001;51.968;5.918;2024-02-21T07:25:19;10.80;99.90
22769;DHT22;13001;51.968;5.918;2024-02-21T07:27:47;10.80;99.90
22769;DHT22;13001;51.968;5.918;2024-02-21T07:30:14;10.90;99.90
22769;DHT22;13001;51.968;5.918;2024-02-21T07:32:42;10.90;99.90
22769;DHT22;13001;51.968;5.918;2024-02-21T07:35:10;10.90;99.90
22769;DHT22;13001;51.968;5.918;2024-02-21T07:37:38;10.90;99.90
22769;DHT22;13001;51.968;5.918;2024-02-21T07:40:06;11.00;99.90
22769;DHT22;13001;51.968;5.918;2024-02-21T07:42:34;11.00;99.90
22769;DHT22;13001;51.968;5.918;2024-02-21T07:45:01;11.00;99.90
22769;DHT22;13001;51.968;5.918;2024-02-21T07:47:29;11.00;99.90
22769;DHT22;13001;51.968;5.918;2024-02-21T07:49:57;11.00;99.90
22769;DHT22;13001;51.968;5.918;2024-02-21T07:52:24;11.00;99.90
22769;DHT22;13001;51.968;5.918;2024-02-21T07:54:53;11.00;99.90
22769;DHT22;13001;51.968;5.918;2024-02-21T07:57:21;11.00;99.90
22769;DHT22;13001;51.968;5.918;2024-02-21T07:59:49;11.10;99.90
22769;DHT22;13001;51.968;5.918;2024-02-21T08:02:17;11.10;99.90
22769;DHT22;13001;51.968;5.918;2024-02-21T08:04:44;11.10;99.90
22769;DHT22;13001;51.968;5.918;2024-02-21T08:07:12;11.20;99.90
22769;DHT22;13001;51.968;5.918;2024-02-21T08:09:40;11.20;99.90
22769;DHT22;13001;51.968;5.918;2024-02-21T08:12:07;11.30;99.90
22769;DHT22;13001;51.968;5.918;2024-02-21T08:14:35;11.30;99.90
22769;DHT22;13001;51.968;5.918;2024-02-21T08:17:03;11.40;99.90
22769;DHT22;13001;51.968;5.918;2024-02-21T08:19:30;11.50;99.90
22769;DHT22;13001;51.968;5.918;2024-02-21T08:21:58;11.60;99.90
22769;DHT22;13001;51.968;5.918;2024-02-21T08:24:25;11.60;99.90
22769;DHT22;13001;51.968;5.918;2024-02-21T08:26:53;11.70;99.90
22769;DHT22;13001;51.968;5.918;2024-02-21T08:29:20;11.70;99.90
22769;DHT22;13001;51.968;5.918;2024-02-21T08:31:48;11.70;99.90
22769;DHT22;13001;51.968;5.918;2024-02-21T08:34:16;11.90;99.90
22769;DHT22;13001;51.968;5.918;2024-02-21T08:36:44;12.00;99.90
22769;DHT22;13001;51.968;5.918;2024-02-21T08:39:11;12.10;99.90
22769;DHT22;13001;51.968;5.918;2024-02-21T08:41:42;12.20;99.90
22769;DHT22;13001;51.968;5.918;2024-02-21T08:44:10;12.20;99.90
22769;DHT22;13001;51.968;5.918;2024-02-21T08:46:37;12.20;99.90
22769;DHT22;13001;51.968;5.918;2024-02-21T08:49:07;12.10;99.90
22769;DHT22;13001;51.968;5.918;2024-02-21T08:51:36;12.10;99.90
22769;DHT22;13001;51.968;5.918;2024-02-21T08:54:03;12.10;99.90
22769;DHT22;13001;51.968;5.918;2024-02-21T08:56:31;12.10;99.90
22769;DHT22;13001;51.968;5.918;2024-02-21T08:58:59;12.10;99.90
22769;DHT22;13001;51.968;5.918;2024-02-21T09:01:27;12.00;99.90
22769;DHT22;13001;51.968;5.918;2024-02-21T09:03:55;12.00;99.90
22769;DHT22;13001;51.968;5.918;2024-02-21T09:06:23;12.00;99.90
22769;DHT22;13001;51.968;5.918;2024-02-21T09:08:50;11.90;99.90
22769;DHT22;13001;51.968;5.918;2024-02-21T09:11:18;12.00;99.90
22769;DHT22;13001;51.968;5.918;2024-02-21T09:13:45;11.90;99.90
22769;DHT22;13001;51.968;5.918;2024-02-21T09:16:13;11.90;99.90
22769;DHT22;13001;51.968;5.918;2024-02-21T09:18:41;11.90;99.90
22769;DHT22;13001;51.968;5.918;2024-02-21T09:21:08;11.90;99.90
22769;DHT22;13001;51.968;5.918;2024-02-21T09:23:36;12.00;99.90
22769;DHT22;13001;51.968;5.918;2024-02-21T09:26:04;11.90;99.90
22769;DHT22;13001;51.968;5.918;2024-02-21T09:28:31;11.90;99.90
22769;DHT22;13001;51.968;5.918;2024-02-21T09:31:00;11.90;99.90
22769;DHT22;13001;51.968;5.918;2024-02-21T09:33:28;12.00;99.90
22769;DHT22;13001;51.968;5.918;2024-02-21T09:35:56;12.10;99.90
22769;DHT22;13001;51.968;5.918;2024-02-21T09:38:23;12.20;99.90
22769;DHT22;13001;51.968;5.918;2024-02-21T09:40:59;12.20;99.90
22769;DHT22;13001;51.968;5.918;2024-02-21T09:43:24;12.30;99.90
22769;DHT22;13001;51.968;5.918;2024-02-21T09:45:54;12.20;99.90
22769;DHT22;13001;51.968;5.918;2024-02-21T09:51:13;12.30;99.90
22769;DHT22;13001;51.968;5.918;2024-02-21T09:53:42;12.30;99.90
22769;DHT22;13001;51.968;5.918;2024-02-21T09:56:11;12.30;99.90
22769;DHT22;13001;51.968;5.918;2024-02-21T09:58:39;12.40;99.90
22769;DHT22;13001;51.968;5.918;2024-02-21T10:01:08;12.40;99.90
22769;DHT22;13001;51.968;5.918;2024-02-21T10:03:35;12.40;99.90
22769;DHT22;13001;51.968;5.918;2024-02-21T10:06:03;12.50;99.90
22769;DHT22;13001;51.968;5.918;2024-02-21T10:08:30;12.60;99.90
22769;DHT22;13001;51.968;5.918;2024-02-21T10:10:58;12.60;99.70
22769;DHT22;13001;51.968;5.918;2024-02-21T10:13:28;12.50;99.70
22769;DHT22;13001;51.968;5.918;2024-02-21T10:16:08;12.40;99.90
22769;DHT22;13001;51.968;5.918;2024-02-21T10:18:33;12.50;99.90
22769;DHT22;13001;51.968;5.918;2024-02-21T10:21:05;12.60;99.90
22769;DHT22;13001;51.968;5.918;2024-02-21T10:23:46;12.70;99.90
22769;DHT22;13001;51.968;5.918;2024-02-21T10:26:15;12.70;99.50
22769;DHT22;13001;51.968;5.918;2024-02-21T10:28:43;12.60;99.50
22769;DHT22;13001;51.968;5.918;2024-02-21T10:31:22;12.50;99.60
22769;DHT22;13001;51.968;5.918;2024-02-21T10:33:57;12.40;99.70
22769;DHT22;13001;51.968;5.918;2024-02-21T10:36:26;12.20;99.90
22769;DHT22;13001;51.968;5.918;2024-02-21T10:38:55;12.10;99.90
22769;DHT22;13001;51.968;5.918;2024-02-21T10:41:24;11.90;99.90
22769;DHT22;13001;51.968;5.918;2024-02-21T10:43:54;11.90;99.90
22769;DHT22;13001;51.968;5.918;2024-02-21T10:46:23;11.90;99.90
22769;DHT22;13001;51.968;5.918;2024-02-21T10:49:21;11.80;99.90
22769;DHT22;13001;51.968;5.918;2024-02-21T10:51:43;11.80;99.90
22769;DHT22;13001;51.968;5.918;2024-02-21T10:54:29;11.80;99.90
22769;DHT22;13001;51.968;5.918;2024-02-21T10:56:55;11.80;99.90
22769;DHT22;13001;51.968;5.918;2024-02-21T10:59:24;11.80;99.90
22769;DHT22;13001;51.968;5.918;2024-02-21T11:01:53;11.80;99.90
22769;DHT22;13001;51.968;5.918;2024-02-21T11:04:20;11.80;99.90
22769;DHT22;13001;51.968;5.918;2024-02-21T11:06:49;11.80;99.90
22769;DHT22;13001;51.968;5.918;2024-02-21T11:09:17;11.90;99.90
22769;DHT22;13001;51.968;5.918;2024-02-21T11:11:45;11.90;99.90
22769;DHT22;13001;51.968;5.918;2024-02-21T11:14:20;12.00;99.90
22769;DHT22;13001;51.968;5.918;2024-02-21T11:16:48;12.00;99.90
22769;DHT22;13001;51.968;5.918;2024-02-21T11:19:25;12.00;99.90
22769;DHT22;13001;51.968;5.918;2024-02-21T11:21:54;12.00;99.90
22769;DHT22;13001;51.968;5.918;2024-02-21T11:24:33;12.00;99.90
22769;DHT22;13001;51.968;5.918;2024-02-21T11:27:08;12.00;99.90
22769;DHT22;13001;51.968;5.918;2024-02-21T11:29:56;12.10;99.90
22769;DHT22;13001;51.968;5.918;2024-02-21T11:32:25;12.10;99.90
22769;DHT22;13001;51.968;5.918;2024-02-21T11:34:58;12.20;99.90
22769;DHT22;13001;51.968;5.918;2024-02-21T11:37:28;12.10;99.90
22769;DHT22;13001;51.968;5.918;2024-02-21T11:39:57;12.10;99.90
22769;DHT22;13001;51.968;5.918;2024-02-21T11:42:28;12.10;99.90
22769;DHT22;13001;51.968;5.918;2024-02-21T11:44:56;12.10;99.90
22769;DHT22;13001;51.968;5.918;2024-02-21T11:47:25;12.10;99.90
22769;DHT22;13001;51.968;5.918;2024-02-21T11:49:52;12.10;99.90
22769;DHT22;13001;51.968;5.918;2024-02-21T11:52:23;12.10;99.90
22769;DHT22;13001;51.968;5.918;2024-02-21T11:54:52;12.00;99.90
22769;DHT22;13001;51.968;5.918;2024-02-21T11:57:21;12.10;99.90
22769;DHT22;13001;51.968;5.918;2024-02-21T11:59:48;12.00;99.90
22769;DHT22;13001;51.968;5.918;2024-02-21T12:02:19;12.00;99.90
22769;DHT22;13001;51.968;5.918;2024-02-21T12:04:46;12.00;99.90
22769;DHT22;13001;51.968;5.918;2024-02-21T12:07:15;11.90;99.90
22769;DHT22;13001;51.968;5.918;2024-02-21T12:09:44;11.90;99.90
22769;DHT22;13001;51.968;5.918;2024-02-21T12:12:11;11.90;99.90
22769;DHT22;13001;51.968;5.918;2024-02-21T12:14:39;11.90;99.90
22769;DHT22;13001;51.968;5.918;2024-02-21T12:17:06;11.90;99.90
22769;DHT22;13001;51.968;5.918;2024-02-21T12:19:34;12.00;99.90
22769;DHT22;13001;51.968;5.918;2024-02-21T12:22:02;12.10;99.90
22769;DHT22;13001;51.968;5.918;2024-02-21T12:24:31;12.20;99.90
22769;DHT22;13001;51.968;5.918;2024-02-21T12:26:58;12.30;99.90
22769;DHT22;13001;51.968;5.918;2024-02-21T12:29:26;12.40;99.80
22769;DHT22;13001;51.968;5.918;2024-02-21T12:31:55;12.50;99.60
22769;DHT22;13001;51.968;5.918;2024-02-21T12:34:23;12.70;99.30
22769;DHT22;13001;51.968;5.918;2024-02-21T12:36:53;12.90;98.90
22769;DHT22;13001;51.968;5.918;2024-02-21T12:39:20;13.10;98.50
22769;DHT22;13001;51.968;5.918;2024-02-21T12:41:48;13.20;98.10
22769;DHT22;13001;51.968;5.918;2024-02-21T12:44:15;13.30;97.70
22769;DHT22;13001;51.968;5.918;2024-02-21T12:46:44;13.30;97.30
22769;DHT22;13001;51.968;5.918;2024-02-21T12:49:12;13.40;97.30
22769;DHT22;13001;51.968;5.918;2024-02-21T12:51:41;13.40;97.20
22769;DHT22;13001;51.968;5.918;2024-02-21T12:54:08;13.50;96.90
22769;DHT22;13001;51.968;5.918;2024-02-21T12:56:38;13.40;97.00
22769;DHT22;13001;51.968;5.918;2024-02-21T12:59:06;13.50;97.10
22769;DHT22;13001;51.968;5.918;2024-02-21T13:01:37;13.50;97.00
22769;DHT22;13001;51.968;5.918;2024-02-21T13:04:05;13.50;96.80
22769;DHT22;13001;51.968;5.918;2024-02-21T13:06:32;13.50;96.70
22769;DHT22;13001;51.968;5.918;2024-02-21T13:09:00;13.50;96.80
22769;DHT22;13001;51.968;5.918;2024-02-21T13:11:29;13.50;96.70
22769;DHT22;13001;51.968;5.918;2024-02-21T13:13:57;13.50;96.70
22769;DHT22;13001;51.968;5.918;2024-02-21T13:16:25;13.50;96.60
22769;DHT22;13001;51.968;5.918;2024-02-21T13:18:54;13.40;96.60
22769;DHT22;13001;51.968;5.918;2024-02-21T13:21:21;13.30;96.50
22769;DHT22;13001;51.968;5.918;2024-02-21T13:23:49;13.30;96.60
22769;DHT22;13001;51.968;5.918;2024-02-21T13:26:16;13.30;96.70
22769;DHT22;13001;51.968;5.918;2024-02-21T13:28:44;13.30;96.70
22769;DHT22;13001;51.968;5.918;2024-02-21T13:31:11;13.20;96.60
22769;DHT22;13001;51.968;5.918;2024-02-21T13:33:39;13.30;96.70
22769;DHT22;13001;51.968;5.918;2024-02-21T13:36:07;13.30;96.70
22769;DHT22;13001;51.968;5.918;2024-02-21T13:38:34;13.30;96.50
22769;DHT22;13001;51.968;5.918;2024-02-21T13:41:02;13.30;96.90
22769;DHT22;13001;51.968;5.918;2024-02-21T13:43:29;13.30;96.70
22769;DHT22;13001;51.968;5.918;2024-02-21T13:45:59;13.30;96.80
22769;DHT22;13001;51.968;5.918;2024-02-21T13:48:27;13.40;96.70
22769;DHT22;13001;51.968;5.918;2024-02-21T13:50:56;13.40;96.30
22769;DHT22;13001;51.968;5.918;2024-02-21T13:53:24;13.40;96.40
22769;DHT22;13001;51.968;5.918;2024-02-21T13:55:51;13.40;96.30
22769;DHT22;13001;51.968;5.918;2024-02-21T13:58:20;13.40;96.40
22769;DHT22;13001;51.968;5.918;2024-02-21T14:00:48;13.40;96.20
22769;DHT22;13001;51.968;5.918;2024-02-21T14:03:19;13.30;96.10
22769;DHT22;13001;51.968;5.918;2024-02-21T14:05:46;13.20;96.10
22769;DHT22;13001;51.968;5.918;2024-02-21T14:08:16;13.20;96.10
22769;DHT22;13001;51.968;5.918;2024-02-21T14:10:43;13.20;96.20
22769;DHT22;13001;51.968;5.918;2024-02-21T14:13:11;13.20;96.20
22769;DHT22;13001;51.968;5.918;2024-02-21T14:15:39;13.20;96.10
22769;DHT22;13001;51.968;5.918;2024-02-21T14:18:07;13.20;96.10
22769;DHT22;13001;51.968;5.918;2024-02-21T14:20:37;13.20;96.10
22769;DHT22;13001;51.968;5.918;2024-02-21T14:23:04;13.30;96.20
22769;DHT22;13001;51.968;5.918;2024-02-21T14:25:32;13.20;96.20
22769;DHT22;13001;51.968;5.918;2024-02-21T14:27:59;13.20;96.00
22769;DHT22;13001;51.968;5.918;2024-02-21T14:30:27;13.20;95.80
22769;DHT22;13001;51.968;5.918;2024-02-21T14:32:54;13.10;95.50
22769;DHT22;13001;51.968;5.918;2024-02-21T14:35:22;13.10;95.50
22769;DHT22;13001;51.968;5.918;2024-02-21T14:37:50;13.10;95.50
22769;DHT22;13001;51.968;5.918;2024-02-21T14:40:19;13.00;95.40
22769;DHT22;13001;51.968;5.918;2024-02-21T14:42:48;13.00;95.70
22769;DHT22;13001;51.968;5.918;2024-02-21T14:45:15;13.00;95.30
22769;DHT22;13001;51.968;5.918;2024-02-21T14:47:43;12.90;95.30
22769;DHT22;13001;51.968;5.918;2024-02-21T14:50:10;12.90;95.40
22769;DHT22;13001;51.968;5.918;2024-02-21T14:52:38;12.90;95.40
22769;DHT22;13001;51.968;5.918;2024-02-21T14:55:06;12.80;95.50
22769;DHT22;13001;51.968;5.918;2024-02-21T14:57:34;12.80;95.50
22769;DHT22;13001;51.968;5.918;2024-02-21T15:00:02;12.80;95.60
22769;DHT22;13001;51.968;5.918;2024-02-21T15:02:32;12.80;95.60
22769;DHT22;13001;51.968;5.918;2024-02-21T15:04:59;12.80;95.70
22769;DHT22;13001;51.968;5.918;2024-02-21T15:07:29;12.80;95.90
22769;DHT22;13001;51.968;5.918;2024-02-21T15:09:56;12.80;95.80
22769;DHT22;13001;51.968;5.918;2024-02-21T15:12:24;12.80;95.90
22769;DHT22;13001;51.968;5.918;2024-02-21T15:14:51;12.80;95.90
22769;DHT22;13001;51.968;5.918;2024-02-21T15:17:19;12.70;95.90
22769;DHT22;13001;51.968;5.918;2024-02-21T15:19:46;12.60;96.00
22769;DHT22;13001;51.968;5.918;2024-02-21T15:22:14;12.60;96.10
22769;DHT22;13001;51.968;5.918;2024-02-21T15:24:43;12.50;96.20
22769;DHT22;13001;51.968;5.918;2024-02-21T15:27:14;12.40;96.50
22769;DHT22;13001;51.968;5.918;2024-02-21T15:29:43;12.40;96.80
22769;DHT22;13001;51.968;5.918;2024-02-21T15:32:13;12.40;97.10
22769;DHT22;13001;51.968;5.918;2024-02-21T15:34:40;12.30;97.20
22769;DHT22;13001;51.968;5.918;2024-02-21T15:37:07;12.30;97.40
22769;DHT22;13001;51.968;5.918;2024-02-21T15:39:35;12.20;97.60
22769;DHT22;13001;51.968;5.918;2024-02-21T15:42:02;12.20;97.90